Toyonaka, Japan
Current Conditions -  °F | °C
As of 8:00 PM on Saturday 25 Oct 2014 (Local Time) from RJOO Reporting Station
Scattered Clouds Scattered Clouds  
Wind Chill: 64°   Ceiling: Unl
Heat Index: 64°   Visibility: 6mi
Dew Point: 54°   Wind: 6mph
Humidity: 68%   Direction: 310°NW
Pressure: 30.18"   Gusts: NA
Location:  34.78°N, 135.48°E
Report Text: RJOO 251100Z 31005KT 9999 FEW035 SCT120 18/12 Q1022
Loading
Personal Weather Stations






























Interactive Weather Map
Tropical Storm Tracking
New forecast layout! Learn more

10-Day Weather Forecast

Advertisements
Track Severe Weather on mobile